Beverly Municipal Airport Beverly US
ICAO: KBVY
IATA: BVY
Category: Medium
Scheduled Services: No

Elevation: 107 ft
TransAlt. 18000 ft.

Airport Communications:
BOSTON APP/DEP:124.4
ATIS:119.2
CTAF:125.2
GND:121.6
TWR:125.2
UNICOM:122.95

KBVY Zoom In..

If you have problems with the map follow the link
https://www.worldairports.se/pages/airport.php?
ICAO=KBVY

Runways:

(A) RW 09 length 4755 ft width 100 ft
LOC 110.50 / hdg 90

(B) RW 16 length 5001 ft width 100 ft
LOC 110.50 / hdg 157

(C) RW 27 length 4755 ft width 100 ft
LOC 110.50 / hdg 270

(D) RW 34 length 5001 ft width 100 ft
LOC 110.50 / hdg 337

Location; KBVY
Day. 22 / Time. 15.53 Zulu
* Altimeter: 30.28
* Temperature: 04° c. 39.2°f.
* Wind from: 300° Speed 12 kn.
Dewpoint: -07° c.
Visibility: 10 Statute Miles.
Clouds: Clear (automated report).

KBVY 221553Z 30012KT 10SM CLR 04/M07 A3028 RMK AO2 SLP252 T00391072


Wind From 300°
Speed 12 kn.

 
 
jpsmedia.com for Web Design worldairports.se 2019   terms of use